Iron Mtn, Michigan
Current Conditions -  °F | °C
As of 6:54 PM on Saturday 25 Oct 2014 (Local Time) from KIMT Reporting Station
Clear Clear  
Wind Chill: 54°   Ceiling: Unl
Heat Index: 54°   Visibility: 10mi
Dew Point: 22°   Wind: 16mph
Humidity: 29%   Direction: 300°WNW
Pressure: 29.83"   Gusts: 25mph
Location:  45.9025°N, 88.0366°W
Report Text: KIMT 252354Z AUTO 30014G22KT 10SM CLR 12/M06 A2983 RMK AO2 SLP105 T01221056 10161 20117 53021
Loading
Personal Weather Stations






























Interactive Weather Map
Tropical Storm Tracking
New forecast layout! Learn more

10-Day Weather Forecast

Advertisements
Track Severe Weather on mobile